Time;durP1;ratioP1;P1;durP2;ratioP2;P2;SDS_P1;SDS_P2;PMS_P1;PMS_P2;Temp;Humidity;BMP_temperature;BMP_pressure;BME280_temperature;BME280_humidity;BME280_pressure;Samples;Min_cycle;Max_cycle;Signal;HPM_P1;HPM_P2
2022/03/25 00:01:59;;;;;;;15.93;12.33;;;6.80;69.60;;;;;;4981920;28;20540;-89
2022/03/25 00:04:25;;;;;;;15.77;11.17;;;7.00;68.10;;;;;;4988212;28;20491;-90
2022/03/25 00:06:50;;;;;;;13.40;11.00;;;7.10;67.40;;;;;;4986337;28;20768;-89
2022/03/25 00:09:16;;;;;;;15.53;11.80;;;7.10;67.00;;;;;;4987243;28;20181;-90
2022/03/25 00:11:41;;;;;;;14.83;12.33;;;7.10;67.10;;;;;;4988894;28;20221;-89
2022/03/25 00:14:11;;;;;;;16.77;12.50;;;7.10;67.30;;;;;;4987171;28;20193;-90
2022/03/25 00:16:36;;;;;;;15.90;12.50;;;7.10;67.30;;;;;;4983386;28;20186;-89
2022/03/25 00:19:03;;;;;;;14.40;11.57;;;7.10;67.40;;;;;;4984307;28;20920;-89
2022/03/25 00:21:29;;;;;;;16.43;12.13;;;7.00;67.70;;;;;;4976035;28;20463;-90
2022/03/25 00:23:55;;;;;;;16.30;12.53;;;6.90;68.20;;;;;;4979667;28;21197;-89
2022/03/25 00:26:20;;;;;;;18.83;12.43;;;6.80;68.60;;;;;;4971030;28;20242;-89
2022/03/25 00:28:46;;;;;;;19.83;12.33;;;6.80;68.80;;;;;;4967049;28;20662;-89
2022/03/25 00:31:11;;;;;;;16.03;12.70;;;6.70;69.30;;;;;;4983332;28;20650;-88
2022/03/25 00:33:37;;;;;;;17.37;12.73;;;6.70;69.70;;;;;;4977555;28;20698;-89
2022/03/25 00:36:03;;;;;;;13.23;11.30;;;6.60;70.00;;;;;;4987813;28;20237;-89
2022/03/25 00:38:29;;;;;;;17.30;12.60;;;6.50;70.50;;;;;;4989932;28;20445;-88
2022/03/25 00:40:55;;;;;;;16.63;12.60;;;6.60;71.20;;;;;;4983611;28;20446;-88
2022/03/25 00:43:22;;;;;;;15.60;12.00;;;6.60;70.90;;;;;;4976878;28;20185;-89
2022/03/25 00:45:48;;;;;;;18.20;12.37;;;6.70;70.90;;;;;;4988539;28;20534;-89
2022/03/25 00:48:14;;;;;;;17.10;13.10;;;6.80;70.80;;;;;;4984488;28;20479;-88
2022/03/25 00:50:40;;;;;;;15.70;12.20;;;6.60;72.10;;;;;;4993074;28;21108;-89
2022/03/25 00:53:06;;;;;;;16.13;12.43;;;6.40;73.10;;;;;;4987357;28;20496;-89
2022/03/25 00:55:34;;;;;;;22.30;13.03;;;6.40;74.70;;;;;;4978534;28;20450;-88
2022/03/25 00:58:15;;;;;;;19.40;12.90;;;6.50;74.30;;;;;;4984956;28;20241;-89
2022/03/25 01:00:41;;;;;;;16.57;11.80;;;6.60;73.40;;;;;;4998009;28;20451;-89
2022/03/25 01:03:07;;;;;;;15.73;12.63;;;6.60;73.40;;;;;;4984684;28;20245;-88
2022/03/25 01:05:33;;;;;;;16.20;12.77;;;6.60;73.20;;;;;;4985742;28;20543;-88
2022/03/25 01:07:59;;;;;;;18.23;12.93;;;6.60;73.50;;;;;;4986375;28;21031;-88
2022/03/25 01:10:25;;;;;;;15.30;11.93;;;6.60;73.70;;;;;;4993779;28;20195;-89
2022/03/25 01:12:50;;;;;;;16.40;12.97;;;6.50;74.10;;;;;;4975836;28;20928;-89
2022/03/25 01:15:16;;;;;;;16.83;12.90;;;6.60;74.50;;;;;;4980808;28;20182;-89
2022/03/25 01:17:41;;;;;;;18.80;13.10;;;6.60;74.50;;;;;;4978232;28;20255;-88
2022/03/25 01:20:09;;;;;;;15.40;12.43;;;6.50;75.20;;;;;;4993948;28;20200;-88
2022/03/25 01:22:35;;;;;;;16.20;12.43;;;6.30;75.90;;;;;;4986503;28;20797;-89
2022/03/25 01:25:00;;;;;;;15.70;11.70;;;6.20;75.90;;;;;;4984298;28;20429;-89
2022/03/25 01:27:26;;;;;;;15.47;12.53;;;6.10;75.60;;;;;;4988778;28;20452;-90
2022/03/25 01:29:52;;;;;;;17.80;12.80;;;6.00;76.20;;;;;;4997849;28;20180;-88
2022/03/25 01:32:26;;;;;;;15.30;12.80;;;5.80;77.90;;;;;;4973793;28;20309;-88
2022/03/25 01:34:51;;;;;;;17.97;12.60;;;5.70;78.30;;;;;;4969361;28;20438;-88
2022/03/25 01:37:17;;;;;;;19.90;13.67;;;5.80;79.00;;;;;;4991972;28;20273;-87
2022/03/25 01:39:43;;;;;;;16.23;13.03;;;5.80;79.30;;;;;;4990079;28;20196;-89
2022/03/25 01:42:10;;;;;;;17.40;12.50;;;5.80;79.50;;;;;;4980603;28;21262;-89
2022/03/25 01:44:35;;;;;;;17.00;13.23;;;5.70;79.90;;;;;;4997859;28;20185;-92
2022/03/25 01:47:01;;;;;;;16.10;13.07;;;5.70;80.00;;;;;;4981052;28;20437;-91
2022/03/25 01:49:27;;;;;;;17.10;14.20;;;5.80;79.50;;;;;;4981765;28;20177;-91
2022/03/25 01:51:55;;;;;;;20.57;13.30;;;5.90;78.90;;;;;;4992950;28;20681;-91
2022/03/25 01:54:27;;;;;;;19.57;14.00;;;6.00;77.70;;;;;;4977787;28;21196;-90
2022/03/25 01:57:05;;;;;;;17.20;13.70;;;6.10;77.10;;;;;;5001944;28;21944;-90
2022/03/25 01:59:32;;;;;;;17.73;13.70;;;6.20;77.00;;;;;;4975403;28;20474;-89
2022/03/25 02:01:59;;;;;;;18.00;13.20;;;6.10;76.90;;;;;;4975760;28;20837;-91
2022/03/25 02:04:26;;;;;;;17.53;13.40;;;6.00;77.00;;;;;;4976929;28;20466;-91
2022/03/25 02:06:52;;;;;;;21.30;14.30;;;6.00;77.10;;;;;;4983003;28;20438;-89
2022/03/25 02:09:19;;;;;;;18.70;12.90;;;6.00;77.00;;;;;;4972763;28;20447;-88
2022/03/25 02:11:45;;;;;;;19.10;13.77;;;5.90;77.50;;;;;;4981486;28;20475;-90
2022/03/25 02:14:11;;;;;;;19.63;13.67;;;5.90;77.70;;;;;;4975210;28;20772;-87
2022/03/25 02:16:42;;;;;;;18.63;13.23;;;5.90;77.80;;;;;;4980564;28;20474;-87
2022/03/25 02:19:11;;;;;;;18.27;12.53;;;5.90;78.40;;;;;;4980101;28;20957;-87
2022/03/25 02:21:38;;;;;;;18.60;13.70;;;5.90;79.50;;;;;;4975727;28;20450;-90
2022/03/25 02:24:06;;;;;;;17.23;12.57;;;5.80;80.10;;;;;;4978293;28;20432;-87
2022/03/25 02:26:33;;;;;;;18.80;12.70;;;5.80;80.00;;;;;;4981084;28;20448;-88
2022/03/25 02:29:00;;;;;;;17.30;13.70;;;5.80;79.60;;;;;;4989247;28;20427;-88
2022/03/25 02:31:26;;;;;;;18.23;13.70;;;5.90;79.50;;;;;;4980794;28;20805;-88
2022/03/25 02:34:03;;;;;;;18.23;13.67;;;5.80;79.70;;;;;;4984457;28;20476;-90
2022/03/25 02:36:29;;;;;;;22.77;13.57;;;5.80;80.20;;;;;;4989831;28;20443;-89
2022/03/25 02:38:54;;;;;;;19.40;13.10;;;5.70;80.40;;;;;;4985409;28;20958;-90
2022/03/25 02:41:20;;;;;;;18.60;13.70;;;5.70;80.50;;;;;;4984201;28;20443;-90
2022/03/25 02:43:45;;;;;;;16.77;12.23;;;5.70;80.90;;;;;;4983336;28;20279;-89
2022/03/25 02:46:11;;;;;;;20.13;14.70;;;5.70;81.30;;;;;;4973426;28;20200;-89
2022/03/25 02:48:37;;;;;;;20.30;13.47;;;5.80;81.90;;;;;;4989932;28;20300;-88
2022/03/25 02:51:03;;;;;;;18.40;14.23;;;5.80;81.40;;;;;;4989413;28;20226;-89
2022/03/25 02:53:29;;;;;;;19.30;13.37;;;5.80;81.40;;;;;;4991903;28;20247;-90
2022/03/25 02:55:55;;;;;;;21.20;13.00;;;5.70;81.80;;;;;;4987784;28;20466;-89
2022/03/25 02:58:21;;;;;;;16.10;13.03;;;5.60;82.30;;;;;;4984292;28;20640;-90
2022/03/25 03:00:46;;;;;;;21.73;13.50;;;5.60;82.60;;;;;;4970345;28;20534;-91
2022/03/25 03:03:12;;;;;;;17.37;13.40;;;5.70;83.60;;;;;;4977527;28;20466;-90
2022/03/25 03:05:38;;;;;;;17.93;13.33;;;5.70;84.80;;;;;;4979067;28;20676;-91
2022/03/25 03:08:04;;;;;;;20.47;15.10;;;5.60;85.10;;;;;;4978742;28;20320;-89
2022/03/25 03:10:30;;;;;;;15.17;11.63;;;5.60;85.60;;;;;;4981465;28;20443;-89
2022/03/25 03:12:55;;;;;;;17.33;13.77;;;5.50;85.60;;;;;;4980591;28;20858;-90
2022/03/25 03:15:25;;;;;;;19.97;13.53;;;5.40;84.90;;;;;;4978209;28;20174;-90
2022/03/25 03:17:51;;;;;;;22.47;14.20;;;5.20;85.40;;;;;;4987493;28;20219;-89
2022/03/25 03:20:18;;;;;;;18.67;12.47;;;4.80;87.30;;;;;;4984008;28;20522;-88
2022/03/25 03:22:52;;;;;;;16.77;13.67;;;4.70;88.40;;;;;;4985020;28;20187;-88
2022/03/25 03:25:18;;;;;;;19.40;13.70;;;4.80;88.40;;;;;;4993141;28;20415;-87
2022/03/25 03:27:44;;;;;;;20.50;14.67;;;4.80;88.60;;;;;;4977512;28;20462;-88
2022/03/25 03:30:11;;;;;;;17.63;13.93;;;4.90;89.60;;;;;;4989495;28;20712;-88
2022/03/25 03:32:37;;;;;;;21.43;14.90;;;4.90;90.40;;;;;;4994862;28;20220;-88
2022/03/25 03:35:04;;;;;;;18.33;13.43;;;4.90;90.10;;;;;;4991615;28;20448;-87
2022/03/25 03:37:29;;;;;;;21.10;14.10;;;5.00;89.80;;;;;;4995508;28;21502;-89
2022/03/25 03:39:55;;;;;;;20.67;15.97;;;4.90;89.60;;;;;;4994009;28;20451;-88
2022/03/25 03:42:21;;;;;;;22.33;16.27;;;5.00;89.60;;;;;;4992030;28;20220;-88
2022/03/25 03:44:46;;;;;;;18.20;13.50;;;5.00;90.00;;;;;;4995536;28;20286;-89
2022/03/25 03:47:12;;;;;;;21.30;14.90;;;4.90;90.10;;;;;;4996764;28;20176;-89
2022/03/25 03:49:39;;;;;;;21.23;14.43;;;4.80;90.40;;;;;;4994739;28;20535;-88
2022/03/25 03:52:05;;;;;;;21.67;14.67;;;4.80;90.70;;;;;;4993124;28;20844;-88
2022/03/25 03:54:32;;;;;;;21.70;13.70;;;4.70;90.90;;;;;;4982603;28;20446;-89
2022/03/25 03:56:58;;;;;;;18.87;13.47;;;4.60;91.10;;;;;;4998499;28;20836;-89
2022/03/25 03:59:29;;;;;;;20.50;14.70;;;4.60;91.50;;;;;;4981060;28;20435;-89
2022/03/25 04:01:59;;;;;;;22.80;14.80;;;4.50;91.60;;;;;;4975331;28;20449;-88
2022/03/25 04:04:25;;;;;;;21.80;14.50;;;4.40;91.90;;;;;;4976335;28;20510;-88
2022/03/25 04:06:50;;;;;;;19.27;14.43;;;4.40;92.40;;;;;;4978021;28;20436;-91
2022/03/25 04:09:16;;;;;;;20.20;12.83;;;4.40;92.60;;;;;;4984957;28;20193;-91
2022/03/25 04:11:41;;;;;;;21.13;14.03;;;4.40;92.80;;;;;;4992944;28;20262;-91
2022/03/25 04:14:07;;;;;;;18.77;13.23;;;4.20;93.00;;;;;;4996858;28;20193;-90
2022/03/25 04:16:32;;;;;;;19.50;13.47;;;4.20;93.60;;;;;;4988715;28;20194;-89
2022/03/25 04:18:58;;;;;;;24.17;15.37;;;4.20;93.60;;;;;;4990072;28;20183;-89
2022/03/25 04:21:24;;;;;;;20.63;13.77;;;4.10;94.00;;;;;;4980504;28;20189;-88
2022/03/25 04:23:50;;;;;;;22.03;14.80;;;4.00;94.40;;;;;;4992574;28;20437;-89
2022/03/25 04:26:16;;;;;;;23.70;14.50;;;4.00;94.60;;;;;;4981286;28;20219;-89
2022/03/25 04:28:41;;;;;;;20.57;13.80;;;4.00;94.90;;;;;;4983570;28;20191;-90
2022/03/25 04:31:07;;;;;;;20.40;14.30;;;4.00;95.00;;;;;;4984171;28;20447;-89
2022/03/25 04:33:34;;;;;;;22.90;14.00;;;4.00;95.00;;;;;;4988011;28;20222;-89
2022/03/25 04:36:00;;;;;;;22.23;14.77;;;4.00;95.10;;;;;;4983980;28;20547;-88
2022/03/25 04:38:27;;;;;;;18.93;13.30;;;4.00;95.30;;;;;;4989453;28;20474;-89
2022/03/25 04:40:52;;;;;;;23.10;15.30;;;3.90;95.60;;;;;;4980572;28;20478;-90
2022/03/25 04:43:18;;;;;;;20.43;13.07;;;3.80;96.00;;;;;;4992864;28;20440;-90
2022/03/25 04:45:43;;;;;;;23.90;14.73;;;3.80;96.40;;;;;;5008340;28;20261;-89
2022/03/25 04:48:11;;;;;;;18.83;14.23;;;3.70;96.50;;;;;;4976713;28;20203;-90
2022/03/25 04:50:37;;;;;;;22.77;14.87;;;3.70;96.90;;;;;;4987453;28;20880;-89
2022/03/25 04:53:02;;;;;;;19.63;14.00;;;3.80;97.10;;;;;;4979812;28;20482;-91
2022/03/25 04:55:28;;;;;;;24.00;14.50;;;3.80;96.90;;;;;;4976175;28;20472;-87
2022/03/25 04:57:54;;;;;;;17.27;12.90;;;3.90;96.80;;;;;;4976470;28;20664;-88
2022/03/25 05:00:19;;;;;;;21.43;14.30;;;4.00;96.60;;;;;;4978814;28;20242;-89
2022/03/25 05:02:45;;;;;;;20.47;14.73;;;4.00;96.40;;;;;;4979016;28;20723;-88
2022/03/25 05:05:13;;;;;;;23.17;14.50;;;3.90;96.60;;;;;;4981888;28;20189;-89
2022/03/25 05:07:43;;;;;;;21.10;14.47;;;3.80;97.10;;;;;;4968483;28;20549;-88
2022/03/25 05:10:12;;;;;;;21.80;14.10;;;3.80;97.40;;;;;;4991803;28;21460;-88
2022/03/25 05:12:38;;;;;;;19.63;14.30;;;3.70;97.50;;;;;;4976754;28;20474;-87
2022/03/25 05:15:04;;;;;;;20.60;14.87;;;3.70;97.90;;;;;;4982095;28;20527;-87
2022/03/25 05:17:30;;;;;;;24.33;15.20;;;3.60;98.40;;;;;;4970343;28;20452;-88
2022/03/25 05:19:56;;;;;;;23.90;15.57;;;3.50;98.70;;;;;;4986455;28;20444;-87
2022/03/25 05:22:22;;;;;;;19.20;13.23;;;3.50;99.00;;;;;;4970452;28;20716;-88
2022/03/25 05:24:47;;;;;;;22.73;14.30;;;3.60;99.30;;;;;;4993539;28;20188;-89
2022/03/25 05:27:13;;;;;;;24.37;15.50;;;3.60;99.00;;;;;;4992601;28;20448;-89
2022/03/25 05:29:41;;;;;;;22.80;15.17;;;3.60;99.00;;;;;;4982585;28;20204;-89
2022/03/25 05:32:11;;;;;;;22.73;14.90;;;3.70;98.90;;;;;;4973313;28;20566;-89
2022/03/25 05:34:36;;;;;;;25.50;14.30;;;3.60;98.80;;;;;;4970291;28;20562;-87
2022/03/25 05:37:02;;;;;;;21.33;14.90;;;3.70;98.90;;;;;;4971218;28;20451;-88
2022/03/25 05:39:28;;;;;;;24.60;15.70;;;3.60;99.30;;;;;;4977934;28;20184;-89
2022/03/25 05:41:53;;;;;;;21.57;16.00;;;3.50;99.60;;;;;;4972921;28;20602;-88
2022/03/25 05:44:19;;;;;;;23.40;13.73;;;3.60;99.60;;;;;;4982697;28;20530;-90
2022/03/25 05:46:45;;;;;;;24.47;15.23;;;3.60;99.90;;;;;;4997916;28;20219;-90
2022/03/25 05:49:10;;;;;;;20.37;14.53;;;3.60;99.80;;;;;;4995355;28;20190;-91
2022/03/25 05:51:36;;;;;;;23.70;15.27;;;3.60;99.80;;;;;;4984335;28;20447;-90
2022/03/25 05:54:02;;;;;;;24.27;15.50;;;3.70;99.80;;;;;;4988673;28;20192;-91
2022/03/25 05:56:27;;;;;;;22.53;14.90;;;3.70;99.70;;;;;;4991603;28;20719;-88
2022/03/25 05:58:55;;;;;;;25.60;15.67;;;3.80;99.70;;;;;;4973431;28;20201;-87
2022/03/25 06:01:21;;;;;;;25.50;16.27;;;3.90;99.70;;;;;;4980867;28;20443;-88
2022/03/25 06:03:46;;;;;;;28.63;17.37;;;4.00;99.50;;;;;;4984542;28;20190;-87
2022/03/25 06:06:14;;;;;;;27.00;17.13;;;4.10;99.10;;;;;;4955020;28;20564;-90
2022/03/25 06:08:40;;;;;;;24.00;15.87;;;4.20;98.90;;;;;;4990729;28;20440;-90
2022/03/25 06:11:06;;;;;;;24.47;15.07;;;4.20;98.70;;;;;;4988298;28;20207;-89
2022/03/25 06:13:34;;;;;;;21.40;16.23;;;4.30;98.60;;;;;;4972103;28;21251;-83
2022/03/25 06:16:00;;;;;;;20.50;15.00;;;4.30;98.40;;;;;;4974967;28;20184;-93
2022/03/25 06:18:25;;;;;;;22.90;15.60;;;4.10;98.50;;;;;;4986271;28;20456;-92
2022/03/25 06:20:51;;;;;;;20.40;14.80;;;4.20;98.60;;;;;;4993281;28;20196;-94
2022/03/25 06:23:17;;;;;;;24.63;14.37;;;4.30;98.80;;;;;;4984530;28;20210;-95
2022/03/25 06:25:42;;;;;;;23.10;15.30;;;4.30;98.70;;;;;;4984020;28;20188;-95
2022/03/25 06:28:22;;;;;;;23.37;16.43;;;4.30;98.20;;;;;;4996372;28;20184;-96
2022/03/25 06:30:49;;;;;;;20.97;14.87;;;4.30;98.60;;;;;;4987136;28;21208;-93
2022/03/25 06:33:15;;;;;;;23.13;14.90;;;4.30;98.50;;;;;;4985288;28;20484;-94
2022/03/25 06:35:40;;;;;;;23.93;15.33;;;4.40;98.30;;;;;;4994535;28;21160;-95
2022/03/25 06:38:08;;;;;;;22.77;14.93;;;4.50;98.10;;;;;;4997326;28;20190;-95
2022/03/25 06:40:39;;;;;;;21.03;15.40;;;4.50;98.10;;;;;;4998777;28;20184;-96
2022/03/25 06:43:15;;;;;;;23.50;17.33;;;4.60;98.10;;;;;;5007682;28;20451;-94
2022/03/25 06:45:41;;;;;;;24.73;15.73;;;4.80;98.10;;;;;;5004191;28;20646;-94
2022/03/25 06:48:07;;;;;;;22.00;14.73;;;4.80;97.60;;;;;;5014792;28;20451;-96
2022/03/25 06:50:35;;;;;;;20.90;15.00;;;4.90;97.60;;;;;;4996981;28;21596;-96
2022/03/25 06:53:04;;;;;;;24.20;14.83;;;5.00;97.30;;;;;;4982267;28;20482;-96
2022/03/25 06:55:31;;;;;;;22.63;15.80;;;5.30;97.10;;;;;;5014035;28;20437;-95
2022/03/25 06:57:57;;;;;;;22.67;15.27;;;5.60;96.20;;;;;;4984624;28;20453;-96
2022/03/25 07:00:39;;;;;;;22.43;16.53;;;5.80;95.90;;;;;;4993743;28;20444;-95
2022/03/25 07:03:14;;;;;;;24.00;15.73;;;6.10;94.60;;;;;;4996764;28;20456;-96
2022/03/25 07:05:40;;;;;;;24.00;16.50;;;6.30;94.10;;;;;;5013187;28;21067;-95
2022/03/25 07:08:15;;;;;;;24.70;15.53;;;6.40;93.90;;;;;;4989440;28;20484;-95
2022/03/25 07:10:41;;;;;;;25.57;17.17;;;6.20;93.50;;;;;;4990400;28;20430;-95
2022/03/25 07:13:07;;;;;;;23.40;16.20;;;6.50;93.60;;;;;;4991295;28;21825;-92
2022/03/25 07:15:33;;;;;;;19.40;14.90;;;6.50;93.20;;;;;;5000989;28;20446;-96
2022/03/25 07:18:16;;;;;;;21.23;16.17;;;6.50;93.30;;;;;;5012460;28;20456;-94
2022/03/25 07:21:00;;;;;;;23.13;16.50;;;6.60;92.90;;;;;;5018011;28;20438;-96
2022/03/25 07:23:43;;;;;;;22.50;16.13;;;6.60;93.30;;;;;;5033361;28;20448;-96
2022/03/25 07:26:28;;;;;;;21.70;15.60;;;6.80;93.10;;;;;;5009240;28;20472;-90
2022/03/25 07:29:03;;;;;;;24.90;18.80;;;7.10;92.60;;;;;;4989042;28;20444;-94
2022/03/25 07:31:28;;;;;;;21.73;16.43;;;7.20;92.40;;;;;;5003988;28;20444;-96
2022/03/25 07:33:55;;;;;;;24.50;18.07;;;7.30;92.20;;;;;;5000603;28;21614;-90
2022/03/25 07:36:21;;;;;;;23.93;16.47;;;7.30;92.30;;;;;;4981880;28;20265;-92
2022/03/25 07:38:46;;;;;;;21.50;16.10;;;7.30;91.80;;;;;;4987936;28;20450;-92
2022/03/25 07:41:12;;;;;;;21.20;17.00;;;7.40;91.80;;;;;;4983704;28;20294;-93
2022/03/25 07:43:39;;;;;;;21.00;15.60;;;7.40;91.80;;;;;;4985317;28;20193;-92
2022/03/25 07:46:04;;;;;;;22.63;16.50;;;7.40;92.00;;;;;;4989791;28;20199;-92
2022/03/25 07:48:33;;;;;;;22.03;16.03;;;7.60;91.70;;;;;;4988383;28;20453;-93
2022/03/25 07:51:01;;;;;;;23.90;15.90;;;7.80;91.80;;;;;;4985603;28;20229;-93
2022/03/25 07:53:26;;;;;;;21.77;16.27;;;8.00;91.50;;;;;;4992750;28;20486;-93
2022/03/25 07:55:55;;;;;;;24.20;16.83;;;8.20;90.90;;;;;;4988712;28;20452;-89
2022/03/25 07:58:22;;;;;;;21.57;16.80;;;8.30;90.60;;;;;;4982878;28;20189;-89
2022/03/25 08:00:57;;;;;;;22.00;16.70;;;8.40;90.30;;;;;;4982208;28;20440;-91
2022/03/25 08:03:23;;;;;;;25.50;16.63;;;8.50;90.70;;;;;;4966758;28;20901;-92
2022/03/25 08:05:50;;;;;;;26.60;17.77;;;8.70;90.20;;;;;;4981025;28;20445;-90
2022/03/25 08:08:17;;;;;;;24.20;18.17;;;8.90;89.00;;;;;;4980133;28;20181;-89
2022/03/25 08:10:43;;;;;;;24.77;17.70;;;9.00;87.90;;;;;;4971542;28;20491;-91
2022/03/25 08:13:10;;;;;;;22.40;17.07;;;9.20;86.50;;;;;;4965967;28;21331;-89
2022/03/25 08:15:36;;;;;;;21.10;17.23;;;9.40;86.90;;;;;;4972807;28;20440;-93
2022/03/25 08:18:05;;;;;;;21.70;16.57;;;9.50;85.50;;;;;;4969759;28;20454;-92
2022/03/25 08:20:41;;;;;;;23.87;17.73;;;9.70;84.80;;;;;;4968357;28;20453;-88
2022/03/25 08:23:12;;;;;;;23.83;17.50;;;9.90;84.30;;;;;;4973459;28;20930;-92
2022/03/25 08:28:22;;;;;;;22.93;19.00;;;10.30;81.10;;;;;;4988357;28;20485;-92
2022/03/25 08:30:49;;;;;;;25.93;19.03;;;10.40;80.20;;;;;;4981786;28;21038;-90
2022/03/25 08:33:16;;;;;;;26.13;18.37;;;10.40;79.50;;;;;;4992090;28;20319;-92
2022/03/25 08:35:45;;;;;;;22.47;17.93;;;10.40;79.00;;;;;;5000527;28;20447;-94
2022/03/25 08:38:32;;;;;;;26.13;18.80;;;10.50;80.70;;;;;;4992082;28;20443;-93
2022/03/25 08:40:59;;;;;;;26.53;20.57;;;10.90;85.20;;;;;;4990151;28;20523;-93
2022/03/25 08:43:28;;;;;;;26.03;19.37;;;11.40;78.50;;;;;;5000754;28;20459;-93
2022/03/25 08:45:56;;;;;;;26.50;19.70;;;11.50;77.00;;;;;;4998372;28;20459;-90
2022/03/25 08:48:22;;;;;;;27.00;20.17;;;11.60;75.80;;;;;;4988346;28;20540;-91
2022/03/25 08:50:47;;;;;;;28.30;20.13;;;11.80;79.40;;;;;;4998149;28;20853;-92
2022/03/25 08:53:13;;;;;;;23.33;18.00;;;12.00;82.90;;;;;;4997998;28;20270;-92
2022/03/25 08:55:39;;;;;;;100.43;89.47;;;12.20;80.70;;;;;;4990346;28;20207;-92
2022/03/25 08:58:05;;;;;;;78.00;69.47;;;12.50;76.60;;;;;;4988464;28;20186;-90
2022/03/25 09:00:31;;;;;;;26.73;19.97;;;12.80;75.10;;;;;;4986067;28;20190;-91
2022/03/25 09:02:57;;;;;;;23.07;19.77;;;12.90;75.70;;;;;;4994716;28;20505;-91
2022/03/25 09:05:23;;;;;;;26.23;20.57;;;13.10;74.00;;;;;;4993351;28;20810;-90
2022/03/25 09:07:49;;;;;;;27.10;19.03;;;13.10;71.50;;;;;;4964347;28;20976;-90
2022/03/25 09:10:16;;;;;;;26.40;20.70;;;13.30;70.50;;;;;;4972239;28;20196;-88
2022/03/25 09:12:45;;;;;;;31.83;21.57;;;13.40;75.80;;;;;;4981108;28;20264;-91
2022/03/25 09:15:13;;;;;;;26.23;20.50;;;13.60;69.80;;;;;;4970720;28;20432;-91
2022/03/25 09:17:40;;;;;;;26.43;21.20;;;13.20;69.00;;;;;;4977747;28;20980;-90
2022/03/25 09:20:09;;;;;;;27.03;20.93;;;13.10;72.70;;;;;;4980372;28;20848;-89
2022/03/25 09:22:35;;;;;;;27.23;21.50;;;13.50;68.50;;;;;;4976055;28;20469;-90
2022/03/25 09:25:07;;;;;;;26.70;21.17;;;14.00;67.70;;;;;;4990071;28;20471;-90
2022/03/25 09:27:33;;;;;;;27.17;21.90;;;14.30;67.60;;;;;;4989471;28;20295;-93
2022/03/25 09:30:04;;;;;;;26.80;22.80;;;14.50;66.60;;;;;;4999945;28;20418;-91
2022/03/25 09:32:30;;;;;;;28.10;21.50;;;14.50;64.90;;;;;;4987259;28;20469;-92
2022/03/25 09:35:08;;;;;;;26.00;21.83;;;14.50;69.30;;;;;;4994922;28;20514;-93
2022/03/25 09:37:39;;;;;;;28.53;21.27;;;14.80;65.20;;;;;;4972210;28;21052;-92
2022/03/25 09:40:08;;;;;;;25.37;21.53;;;15.30;68.90;;;;;;4991751;28;20455;-89
2022/03/25 09:42:37;;;;;;;25.67;20.87;;;15.70;64.00;;;;;;4994460;28;20924;-90
2022/03/25 09:45:07;;;;;;;27.93;22.70;;;15.60;64.70;;;;;;4982914;28;20818;-90
2022/03/25 09:47:36;;;;;;;28.03;22.17;;;15.90;60.40;;;;;;4979173;28;20457;-91
2022/03/25 09:50:09;;;;;;;26.77;21.73;;;16.00;64.90;;;;;;4978863;28;20432;-91
2022/03/25 09:52:35;;;;;;;24.17;21.20;;;16.00;64.30;;;;;;4985311;28;20475;-93
2022/03/25 09:55:18;;;;;;;23.87;21.27;;;16.30;65.30;;;;;;4976663;28;20582;-92
2022/03/25 09:57:43;;;;;;;25.23;21.50;;;16.40;62.10;;;;;;4978596;28;21373;-92
2022/03/25 10:00:16;;;;;;;25.93;20.87;;;16.70;62.10;;;;;;4979332;28;20447;-94
2022/03/25 10:02:42;;;;;;;27.83;22.73;;;16.70;61.80;;;;;;4987228;28;20193;-94
2022/03/25 10:05:19;;;;;;;26.10;20.73;;;16.90;59.60;;;;;;4979445;28;20972;-94
2022/03/25 10:07:50;;;;;;;26.20;22.07;;;16.90;59.10;;;;;;4995484;28;20940;-94
2022/03/25 10:10:24;;;;;;;24.97;21.40;;;16.80;61.00;;;;;;4987802;28;20519;-95
2022/03/25 10:12:58;;;;;;;28.07;22.43;;;16.80;63.60;;;;;;4985213;28;20480;-94
2022/03/25 10:15:26;;;;;;;26.53;22.53;;;17.00;61.90;;;;;;4993362;28;20439;-93
2022/03/25 10:18:08;;;;;;;25.67;22.37;;;17.10;62.30;;;;;;4989580;28;20878;-95
2022/03/25 10:20:43;;;;;;;29.53;21.67;;;17.20;64.50;;;;;;4979605;28;20449;-93
2022/03/25 10:23:21;;;;;;;25.70;22.50;;;17.10;61.40;;;;;;4975408;28;20451;-94
2022/03/25 10:25:53;;;;;;;30.80;21.87;;;17.40;58.00;;;;;;4971505;28;20445;-95
2022/03/25 10:28:36;;;;;;;26.67;22.07;;;17.50;56.60;;;;;;4972831;28;20463;-93
2022/03/25 10:31:11;;;;;;;28.07;23.00;;;17.60;57.90;;;;;;4973051;28;21072;-93
2022/03/25 10:33:57;;;;;;;29.10;23.60;;;18.00;56.40;;;;;;4980972;28;20482;-92
2022/03/25 10:36:39;;;;;;;32.50;23.80;;;18.00;59.00;;;;;;4989778;28;20478;-91
2022/03/25 10:39:18;;;;;;;26.40;21.20;;;18.00;58.30;;;;;;4987396;28;20449;-94
2022/03/25 10:41:46;;;;;;;26.00;22.80;;;18.00;52.60;;;;;;4981531;28;20864;-92
2022/03/25 10:44:12;;;;;;;29.20;23.00;;;18.30;54.20;;;;;;4969083;28;20443;-93
2022/03/25 10:46:53;;;;;;;27.73;22.47;;;18.30;54.30;;;;;;4977225;28;20436;-92
2022/03/25 10:49:20;;;;;;;28.63;21.17;;;18.40;55.60;;;;;;4983237;28;20468;-94
2022/03/25 10:51:58;;;;;;;26.93;21.50;;;18.60;53.70;;;;;;4981287;28;21261;-92
2022/03/25 10:54:31;;;;;;;26.03;21.10;;;18.60;52.80;;;;;;4972910;28;20473;-92
2022/03/25 10:57:09;;;;;;;26.90;22.80;;;18.60;50.60;;;;;;4978183;28;20530;-92
2022/03/25 10:59:38;;;;;;;23.17;19.00;;;18.80;49.70;;;;;;4989991;28;20447;-91
2022/03/25 11:02:12;;;;;;;28.10;23.53;;;18.70;50.10;;;;;;4970105;28;20440;-93
2022/03/25 11:05:17;;;;;;;26.00;23.03;;;18.80;48.90;;;;;;4977173;28;20439;-94
2022/03/25 11:08:02;;;;;;;24.17;21.57;;;19.00;49.80;;;;;;4975056;28;20445;-91
2022/03/25 11:10:27;;;;;;;24.07;20.57;;;20.00;49.70;;;;;;4968135;28;20497;-90
2022/03/25 11:13:02;;;;;;;27.73;23.03;;;19.80;51.80;;;;;;5007504;28;20479;-92
2022/03/25 11:15:30;;;;;;;25.60;22.50;;;19.80;49.40;;;;;;4991644;28;20484;-95
2022/03/25 11:17:58;;;;;;;40.20;23.10;;;19.60;48.20;;;;;;4990878;28;20448;-91
2022/03/25 11:20:28;;;;;;;29.13;21.97;;;19.60;49.80;;;;;;4981952;28;20447;-91
2022/03/25 11:23:15;;;;;;;26.33;22.80;;;19.90;47.70;;;;;;4993239;28;20451;-96
2022/03/25 11:25:48;;;;;;;26.17;21.70;;;20.00;46.20;;;;;;4993311;28;20436;-88
2022/03/25 11:28:19;;;;;;;26.50;22.20;;;19.90;46.50;;;;;;4993718;28;20431;-88
2022/03/25 11:30:45;;;;;;;25.93;23.13;;;20.40;47.20;;;;;;4989343;28;20826;-90
2022/03/25 11:33:11;;;;;;;23.43;20.67;;;20.30;47.00;;;;;;4982785;28;20569;-90
2022/03/25 11:35:41;;;;;;;26.97;23.30;;;20.40;47.20;;;;;;4990411;28;20543;-88
2022/03/25 11:38:10;;;;;;;23.63;20.10;;;20.30;45.60;;;;;;4983791;28;20196;-89
2022/03/25 11:40:47;;;;;;;24.63;21.90;;;20.30;45.20;;;;;;4989070;28;20840;-89
2022/03/25 11:43:25;;;;;;;26.23;21.37;;;20.70;45.50;;;;;;4988357;28;20451;-87
2022/03/25 11:46:09;;;;;;;22.37;20.03;;;20.80;44.60;;;;;;4993027;28;20473;-88
2022/03/25 11:48:37;;;;;;;22.40;19.70;;;20.80;43.50;;;;;;4988887;28;20435;-88
2022/03/25 11:51:24;;;;;;;23.30;20.10;;;21.00;45.50;;;;;;4974837;28;20489;-87
2022/03/25 11:53:50;;;;;;;22.20;19.80;;;21.20;43.10;;;;;;4970068;28;20678;-90
2022/03/25 11:56:15;;;;;;;27.93;25.10;;;20.70;43.70;;;;;;4988730;28;20530;-95
2022/03/25 11:59:02;;;;;;;20.90;18.60;;;20.70;43.80;;;;;;5002373;28;20195;-94
2022/03/25 12:01:30;;;;;;;23.60;18.67;;;21.10;41.10;;;;;;4987605;28;20691;-92
2022/03/25 12:03:57;;;;;;;25.33;20.07;;;21.10;43.00;;;;;;4976651;28;20444;-94
2022/03/25 12:06:48;;;;;;;22.17;20.00;;;21.20;43.30;;;;;;4980067;28;20439;-92
2022/03/25 12:09:15;;;;;;;25.13;21.73;;;21.40;45.20;;;;;;4965672;28;20436;-92
2022/03/25 12:11:53;;;;;;;21.97;19.73;;;21.50;41.90;;;;;;4987942;28;20463;-93
2022/03/25 12:14:21;;;;;;;19.93;17.50;;;20.90;39.60;;;;;;4978630;28;20513;-92
2022/03/25 12:16:49;;;;;;;24.03;19.60;;;20.90;40.40;;;;;;4977364;28;20442;-93
2022/03/25 12:19:27;;;;;;;22.63;19.07;;;21.10;41.90;;;;;;4982072;28;20431;-93
2022/03/25 12:22:18;;;;;;;22.40;20.00;;;21.20;41.80;;;;;;4977340;28;20435;-92
2022/03/25 12:24:44;;;;;;;23.87;21.40;;;21.40;42.50;;;;;;4986968;28;20450;-90
2022/03/25 12:27:10;;;;;;;23.50;20.40;;;22.00;41.30;;;;;;5002941;28;20476;-90
2022/03/25 12:29:43;;;;;;;24.23;21.63;;;21.90;38.30;;;;;;4990551;28;20460;-92
2022/03/25 12:32:14;;;;;;;23.93;21.47;;;22.10;40.90;;;;;;4989121;28;20213;-95
2022/03/25 12:35:08;;;;;;;23.43;20.90;;;21.90;40.60;;;;;;5015204;28;20427;-96
2022/03/25 12:37:58;;;;;;;24.17;21.67;;;21.70;41.10;;;;;;5003788;28;21082;-95
2022/03/25 12:40:29;;;;;;;22.83;20.47;;;22.60;41.10;;;;;;4981503;28;20511;-95
2022/03/25 12:42:59;;;;;;;23.47;21.10;;;22.70;40.40;;;;;;4983449;28;20455;-95
2022/03/25 12:45:51;;;;;;;22.93;20.53;;;22.50;40.00;;;;;;4978384;28;20966;-96